sensor_id;sensor_type;location;lat;lon;timestamp;pressure;altitude;pressure_sealevel;temperature;humidity
42727;BME280;28372;56.832;60.658;2022-12-07T00:01:36;99766.59;;;-9.58;46.39
42727;BME280;28372;56.832;60.658;2022-12-07T00:04:07;99765.38;;;-9.62;46.47
42727;BME280;28372;56.832;60.658;2022-12-07T00:06:41;99726.72;;;-9.89;46.70
42727;BME280;28372;56.832;60.658;2022-12-07T00:09:14;99772.81;;;-9.66;46.86
42727;BME280;28372;56.832;60.658;2022-12-07T00:11:43;99772.81;;;-9.66;47.06
42727;BME280;28372;56.832;60.658;2022-12-07T00:14:12;99782.50;;;-9.60;46.91
42727;BME280;28372;56.832;60.658;2022-12-07T00:16:40;99778.97;;;-9.52;45.98
42727;BME280;28372;56.832;60.658;2022-12-07T00:19:11;99774.19;;;-9.42;45.92
42727;BME280;28372;56.832;60.658;2022-12-07T00:21:38;99777.19;;;-9.45;46.11
42727;BME280;28372;56.832;60.658;2022-12-07T00:24:06;99773.53;;;-9.44;45.88
42727;BME280;28372;56.832;60.658;2022-12-07T00:26:35;99789.31;;;-9.37;45.68
42727;BME280;28372;56.832;60.658;2022-12-07T00:29:21;99780.06;;;-9.33;46.62
42727;BME280;28372;56.832;60.658;2022-12-07T00:31:51;99775.41;;;-9.38;46.21
42727;BME280;28372;56.832;60.658;2022-12-07T00:34:20;99772.84;;;-9.31;46.23
42727;BME280;28372;56.832;60.658;2022-12-07T00:36:49;99767.22;;;-9.28;46.93
42727;BME280;28372;56.832;60.658;2022-12-07T00:39:17;99769.84;;;-9.28;48.18
42727;BME280;28372;56.832;60.658;2022-12-07T00:41:45;99763.75;;;-9.28;48.59
42727;BME280;28372;56.832;60.658;2022-12-07T00:44:12;99760.72;;;-9.32;48.56
42727;BME280;28372;56.832;60.658;2022-12-07T00:46:40;99761.72;;;-9.33;47.75
42727;BME280;28372;56.832;60.658;2022-12-07T00:49:07;99760.09;;;-9.41;48.15
42727;BME280;28372;56.832;60.658;2022-12-07T00:51:35;99756.22;;;-9.45;47.73
42727;BME280;28372;56.832;60.658;2022-12-07T00:54:02;99764.63;;;-9.50;48.47
42727;BME280;28372;56.832;60.658;2022-12-07T00:56:30;99761.66;;;-9.47;48.35
42727;BME280;28372;56.832;60.658;2022-12-07T00:59:00;99762.13;;;-9.36;48.97
42727;BME280;28372;56.832;60.658;2022-12-07T01:01:31;99757.91;;;-9.31;49.57
42727;BME280;28372;56.832;60.658;2022-12-07T01:03:59;99750.06;;;-9.31;50.26
42727;BME280;28372;56.832;60.658;2022-12-07T01:06:30;99753.97;;;-9.13;48.09
42727;BME280;28372;56.832;60.658;2022-12-07T01:08:58;99745.75;;;-9.10;48.14
42727;BME280;28372;56.832;60.658;2022-12-07T01:11:28;99745.53;;;-9.08;48.34
42727;BME280;28372;56.832;60.658;2022-12-07T01:13:58;99758.25;;;-9.05;47.60
42727;BME280;28372;56.832;60.658;2022-12-07T01:16:28;99735.84;;;-9.08;47.42
42727;BME280;28372;56.832;60.658;2022-12-07T01:18:57;99727.59;;;-9.05;47.08
42727;BME280;28372;56.832;60.658;2022-12-07T01:21:28;99734.06;;;-9.07;46.61
42727;BME280;28372;56.832;60.658;2022-12-07T01:23:57;99739.31;;;-9.07;47.08
42727;BME280;28372;56.832;60.658;2022-12-07T01:26:25;99734.47;;;-9.04;46.50
42727;BME280;28372;56.832;60.658;2022-12-07T01:28:54;99732.06;;;-8.99;45.94
42727;BME280;28372;56.832;60.658;2022-12-07T01:31:25;99722.34;;;-9.05;46.66
42727;BME280;28372;56.832;60.658;2022-12-07T01:33:57;99736.28;;;-9.04;46.36
42727;BME280;28372;56.832;60.658;2022-12-07T01:36:32;99748.16;;;-9.08;46.60
42727;BME280;28372;56.832;60.658;2022-12-07T01:39:03;99742.50;;;-9.12;47.09
42727;BME280;28372;56.832;60.658;2022-12-07T01:41:34;99738.69;;;-9.09;46.86
42727;BME280;28372;56.832;60.658;2022-12-07T01:44:24;99744.56;;;-9.01;47.30
42727;BME280;28372;56.832;60.658;2022-12-07T01:46:57;99734.66;;;-9.05;46.54
42727;BME280;28372;56.832;60.658;2022-12-07T01:49:37;99743.34;;;-8.98;47.13
42727;BME280;28372;56.832;60.658;2022-12-07T01:52:11;99741.13;;;-9.01;46.46
42727;BME280;28372;56.832;60.658;2022-12-07T01:54:41;99733.88;;;-8.99;46.53
42727;BME280;28372;56.832;60.658;2022-12-07T01:57:11;99746.78;;;-8.98;46.37
42727;BME280;28372;56.832;60.658;2022-12-07T01:59:41;99735.69;;;-9.00;46.02
42727;BME280;28372;56.832;60.658;2022-12-07T02:02:38;99744.59;;;-8.94;46.30
42727;BME280;28372;56.832;60.658;2022-12-07T02:05:05;99740.75;;;-8.98;45.82
42727;BME280;28372;56.832;60.658;2022-12-07T02:07:36;99733.44;;;-9.09;46.04
42727;BME280;28372;56.832;60.658;2022-12-07T02:10:21;99745.94;;;-9.05;46.10
42727;BME280;28372;56.832;60.658;2022-12-07T02:12:56;99746.09;;;-9.20;45.82
42727;BME280;28372;56.832;60.658;2022-12-07T02:15:42;99752.13;;;-9.19;46.52
42727;BME280;28372;56.832;60.658;2022-12-07T02:21:00;99746.84;;;-9.26;47.00
42727;BME280;28372;56.832;60.658;2022-12-07T02:29:25;99740.84;;;-9.20;46.93
42727;BME280;28372;56.832;60.658;2022-12-07T02:32:03;99744.47;;;-9.21;46.09
42727;BME280;28372;56.832;60.658;2022-12-07T02:34:58;99744.72;;;-9.16;46.44
42727;BME280;28372;56.832;60.658;2022-12-07T02:42:49;99743.31;;;-9.11;46.77
42727;BME280;28372;56.832;60.658;2022-12-07T02:45:21;99745.50;;;-9.15;46.22
42727;BME280;28372;56.832;60.658;2022-12-07T02:47:51;99752.38;;;-9.14;45.99
42727;BME280;28372;56.832;60.658;2022-12-07T02:50:21;99726.31;;;-9.22;46.56
42727;BME280;28372;56.832;60.658;2022-12-07T02:52:49;99726.31;;;-9.22;46.98
42727;BME280;28372;56.832;60.658;2022-12-07T02:55:19;99734.41;;;-9.17;47.17
42727;BME280;28372;56.832;60.658;2022-12-07T03:01:19;99732.69;;;-8.97;46.43
42727;BME280;28372;56.832;60.658;2022-12-07T03:10:00;99726.84;;;-8.99;46.69
42727;BME280;28372;56.832;60.658;2022-12-07T03:18:02;99738.72;;;-9.03;46.09
42727;BME280;28372;56.832;60.658;2022-12-07T03:20:33;99732.69;;;-8.97;45.88
42727;BME280;28372;56.832;60.658;2022-12-07T03:23:05;99732.88;;;-8.98;45.75
42727;BME280;28372;56.832;60.658;2022-12-07T03:25:45;99734.06;;;-9.01;46.03
42727;BME280;28372;56.832;60.658;2022-12-07T03:28:18;99746.97;;;-8.99;45.90
42727;BME280;28372;56.832;60.658;2022-12-07T03:31:02;99729.66;;;-9.00;46.28
42727;BME280;28372;56.832;60.658;2022-12-07T03:36:16;99729.84;;;-9.02;46.54
42727;BME280;28372;56.832;60.658;2022-12-07T03:38:50;99733.88;;;-8.99;46.04
42727;BME280;28372;56.832;60.658;2022-12-07T03:41:29;99732.47;;;-8.95;46.25
42727;BME280;28372;56.832;60.658;2022-12-07T03:43:57;99736.09;;;-9.03;45.85
42727;BME280;28372;56.832;60.658;2022-12-07T03:46:36;99732.63;;;-9.03;45.97
42727;BME280;28372;56.832;60.658;2022-12-07T03:52:12;99727.81;;;-9.00;46.05
42727;BME280;28372;56.832;60.658;2022-12-07T03:54:56;99738.50;;;-9.01;45.89
42727;BME280;28372;56.832;60.658;2022-12-07T03:57:27;99737.91;;;-8.97;45.36
42727;BME280;28372;56.832;60.658;2022-12-07T03:59:57;99727.81;;;-9.00;46.06
42727;BME280;28372;56.832;60.658;2022-12-07T04:02:26;99725.63;;;-8.96;44.97
42727;BME280;28372;56.832;60.658;2022-12-07T04:04:56;99738.13;;;-8.98;45.62
42727;BME280;28372;56.832;60.658;2022-12-07T04:07:23;99734.81;;;-9.14;44.71
42727;BME280;28372;56.832;60.658;2022-12-07T04:09:51;99731.00;;;-9.11;45.83
42727;BME280;28372;56.832;60.658;2022-12-07T04:12:18;99724.53;;;-9.15;46.08
42727;BME280;28372;56.832;60.658;2022-12-07T04:14:46;99734.03;;;-9.14;46.15
42727;BME280;28372;56.832;60.658;2022-12-07T04:17:13;99727.16;;;-9.15;45.93
42727;BME280;28372;56.832;60.658;2022-12-07T04:19:41;99735.25;;;-9.10;46.37
42727;BME280;28372;56.832;60.658;2022-12-07T04:22:08;99727.59;;;-9.05;46.33
42727;BME280;28372;56.832;60.658;2022-12-07T04:24:36;99735.69;;;-9.00;46.48
42727;BME280;28372;56.832;60.658;2022-12-07T04:27:03;99739.97;;;-8.92;46.29
42727;BME280;28372;56.832;60.658;2022-12-07T04:29:31;99734.75;;;-8.79;46.14
42727;BME280;28372;56.832;60.658;2022-12-07T04:31:58;99739.88;;;-8.50;47.62
42727;BME280;28372;56.832;60.658;2022-12-07T04:34:26;99714.44;;;-8.36;47.41
42727;BME280;28372;56.832;60.658;2022-12-07T04:36:54;99741.53;;;-7.89;46.33
42727;BME280;28372;56.832;60.658;2022-12-07T04:39:29;99739.28;;;-7.52;45.90
42727;BME280;28372;56.832;60.658;2022-12-07T04:41:57;99759.66;;;-7.14;46.54
42727;BME280;28372;56.832;60.658;2022-12-07T04:44:26;99757.88;;;-6.75;45.02
42727;BME280;28372;56.832;60.658;2022-12-07T04:46:54;99749.19;;;-6.37;43.92
42727;BME280;28372;56.832;60.658;2022-12-07T04:49:23;99746.81;;;-5.88;44.29
42727;BME280;28372;56.832;60.658;2022-12-07T04:51:51;99750.25;;;-5.43;44.07
42727;BME280;28372;56.832;60.658;2022-12-07T04:54:19;99748.81;;;-5.02;44.15
42727;BME280;28372;56.832;60.658;2022-12-07T04:56:47;99756.25;;;-4.62;42.54
42727;BME280;28372;56.832;60.658;2022-12-07T04:59:15;99742.16;;;-4.25;42.24
42727;BME280;28372;56.832;60.658;2022-12-07T05:01:43;99749.03;;;-3.82;40.76
42727;BME280;28372;56.832;60.658;2022-12-07T05:04:11;99749.38;;;-3.43;41.73
42727;BME280;28372;56.832;60.658;2022-12-07T05:06:39;99751.16;;;-2.96;38.35
42727;BME280;28372;56.832;60.658;2022-12-07T05:09:06;99750.19;;;-2.66;39.24
42727;BME280;28372;56.832;60.658;2022-12-07T05:11:34;99749.00;;;-2.30;39.28
42727;BME280;28372;56.832;60.658;2022-12-07T05:14:17;99754.09;;;-1.77;38.55
42727;BME280;28372;56.832;60.658;2022-12-07T05:16:48;99743.38;;;-1.31;36.14
42727;BME280;28372;56.832;60.658;2022-12-07T05:19:17;99737.47;;;-0.94;37.73
42727;BME280;28372;56.832;60.658;2022-12-07T05:21:46;99748.31;;;-0.52;35.89
42727;BME280;28372;56.832;60.658;2022-12-07T05:24:15;99740.66;;;-0.21;36.19
42727;BME280;28372;56.832;60.658;2022-12-07T05:26:43;99740.41;;;0.13;33.97
42727;BME280;28372;56.832;60.658;2022-12-07T05:29:13;99733.75;;;0.48;34.17
42727;BME280;28372;56.832;60.658;2022-12-07T05:31:42;99749.59;;;0.76;34.10
42727;BME280;28372;56.832;60.658;2022-12-07T05:34:09;99744.72;;;1.10;33.75
42727;BME280;28372;56.832;60.658;2022-12-07T05:36:37;99744.59;;;1.48;33.36
42727;BME280;28372;56.832;60.658;2022-12-07T05:39:05;99736.63;;;1.74;31.99
42727;BME280;28372;56.832;60.658;2022-12-07T05:41:32;99738.53;;;2.19;31.62
42727;BME280;28372;56.832;60.658;2022-12-07T05:44:18;99730.19;;;2.62;30.88
42727;BME280;28372;56.832;60.658;2022-12-07T05:46:46;99738.38;;;2.97;30.15
42727;BME280;28372;56.832;60.658;2022-12-07T05:49:13;99734.03;;;3.16;30.35
42727;BME280;28372;56.832;60.658;2022-12-07T05:51:41;99738.69;;;3.50;30.06
42727;BME280;28372;56.832;60.658;2022-12-07T05:54:09;99737.63;;;3.91;29.48
42727;BME280;28372;56.832;60.658;2022-12-07T05:56:37;99729.31;;;4.27;28.30
42727;BME280;28372;56.832;60.658;2022-12-07T05:59:04;99735.47;;;4.57;27.96
42727;BME280;28372;56.832;60.658;2022-12-07T06:04:20;99732.97;;;5.14;28.04
42727;BME280;28372;56.832;60.658;2022-12-07T06:06:48;99732.63;;;5.40;26.70
42727;BME280;28372;56.832;60.658;2022-12-07T06:09:17;99726.69;;;5.62;26.47
42727;BME280;28372;56.832;60.658;2022-12-07T06:11:45;99730.81;;;5.92;26.74
42727;BME280;28372;56.832;60.658;2022-12-07T06:14:31;99733.16;;;6.32;26.39
42727;BME280;28372;56.832;60.658;2022-12-07T06:16:59;99720.06;;;6.44;25.45
42727;BME280;28372;56.832;60.658;2022-12-07T06:19:45;99718.56;;;6.66;24.74
42727;BME280;28372;56.832;60.658;2022-12-07T06:22:16;99710.34;;;6.90;24.39
42727;BME280;28372;56.832;60.658;2022-12-07T06:24:51;99701.44;;;7.17;24.20
42727;BME280;28372;56.832;60.658;2022-12-07T06:27:19;99707.56;;;7.46;23.78
42727;BME280;28372;56.832;60.658;2022-12-07T06:29:46;99710.09;;;7.65;23.13
42727;BME280;28372;56.832;60.658;2022-12-07T06:32:14;99678.25;;;7.67;22.65
42727;BME280;28372;56.832;60.658;2022-12-07T06:34:41;99697.97;;;7.99;22.62
42727;BME280;28372;56.832;60.658;2022-12-07T06:37:09;99701.47;;;8.22;22.91
42727;BME280;28372;56.832;60.658;2022-12-07T06:39:36;99697.13;;;8.44;21.91
42727;BME280;28372;56.832;60.658;2022-12-07T06:42:05;99694.53;;;8.61;22.01
42727;BME280;28372;56.832;60.658;2022-12-07T06:44:33;99684.09;;;8.68;21.90
42727;BME280;28372;56.832;60.658;2022-12-07T06:47:00;99699.38;;;8.82;20.94
42727;BME280;28372;56.832;60.658;2022-12-07T06:49:48;99688.91;;;8.80;20.69
42727;BME280;28372;56.832;60.658;2022-12-07T06:52:15;99693.06;;;8.95;20.79
42727;BME280;28372;56.832;60.658;2022-12-07T06:54:43;99696.88;;;8.94;20.65
42727;BME280;28372;56.832;60.658;2022-12-07T06:57:11;99692.88;;;8.83;20.79
42727;BME280;28372;56.832;60.658;2022-12-07T06:59:39;99694.38;;;8.57;21.12
42727;BME280;28372;56.832;60.658;2022-12-07T07:02:08;99693.00;;;8.37;21.25
42727;BME280;28372;56.832;60.658;2022-12-07T07:04:36;99670.84;;;8.18;21.83
42727;BME280;28372;56.832;60.658;2022-12-07T07:07:04;99679.91;;;7.99;21.54
42727;BME280;28372;56.832;60.658;2022-12-07T07:09:31;99674.06;;;7.75;21.87
42727;BME280;28372;56.832;60.658;2022-12-07T07:11:59;99682.97;;;7.25;21.62
42727;BME280;28372;56.832;60.658;2022-12-07T07:14:30;99679.75;;;6.86;22.63
42727;BME280;28372;56.832;60.658;2022-12-07T07:16:57;99673.06;;;6.42;22.56
42727;BME280;28372;56.832;60.658;2022-12-07T07:19:25;99676.97;;;6.03;23.02
42727;BME280;28372;56.832;60.658;2022-12-07T07:21:52;99672.94;;;5.67;23.19
42727;BME280;28372;56.832;60.658;2022-12-07T07:24:20;99672.22;;;5.42;23.62
42727;BME280;28372;56.832;60.658;2022-12-07T07:26:47;99663.56;;;5.07;23.44
42727;BME280;28372;56.832;60.658;2022-12-07T07:29:15;99669.00;;;4.59;23.46
42727;BME280;28372;56.832;60.658;2022-12-07T07:31:42;99666.63;;;3.99;23.75
42727;BME280;28372;56.832;60.658;2022-12-07T07:34:10;99660.63;;;3.43;24.11
42727;BME280;28372;56.832;60.658;2022-12-07T07:36:37;99657.94;;;2.93;25.18
42727;BME280;28372;56.832;60.658;2022-12-07T07:39:05;99650.09;;;2.47;25.04
42727;BME280;28372;56.832;60.658;2022-12-07T07:41:33;99656.31;;;2.16;25.02
42727;BME280;28372;56.832;60.658;2022-12-07T07:44:02;99611.00;;;1.54;25.63
42727;BME280;28372;56.832;60.658;2022-12-07T07:46:29;99648.31;;;1.44;26.50
42727;BME280;28372;56.832;60.658;2022-12-07T07:48:57;99653.88;;;1.17;26.63
42727;BME280;28372;56.832;60.658;2022-12-07T07:51:25;99645.19;;;0.74;27.10
42727;BME280;28372;56.832;60.658;2022-12-07T07:53:55;99648.84;;;0.52;27.94
42727;BME280;28372;56.832;60.658;2022-12-07T07:56:27;99646.03;;;0.26;27.79
42727;BME280;28372;56.832;60.658;2022-12-07T07:58:56;99638.72;;;0.06;27.89
42727;BME280;28372;56.832;60.658;2022-12-07T08:01:23;99641.06;;;-0.03;28.53
42727;BME280;28372;56.832;60.658;2022-12-07T08:03:51;99644.09;;;-0.21;28.51
42727;BME280;28372;56.832;60.658;2022-12-07T08:06:19;99647.16;;;-0.40;29.38
42727;BME280;28372;56.832;60.658;2022-12-07T08:08:46;99636.56;;;-0.62;29.10
42727;BME280;28372;56.832;60.658;2022-12-07T08:11:14;99625.16;;;-0.90;29.70
42727;BME280;28372;56.832;60.658;2022-12-07T08:13:41;99626.38;;;-1.25;30.45
42727;BME280;28372;56.832;60.658;2022-12-07T08:16:10;99644.28;;;-1.37;31.04
42727;BME280;28372;56.832;60.658;2022-12-07T08:18:39;99636.63;;;-1.56;31.43
42727;BME280;28372;56.832;60.658;2022-12-07T08:21:11;99641.47;;;-1.69;31.90
42727;BME280;28372;56.832;60.658;2022-12-07T08:23:38;99647.44;;;-1.79;31.74
42727;BME280;28372;56.832;60.658;2022-12-07T08:26:08;99648.25;;;-1.79;31.75
42727;BME280;28372;56.832;60.658;2022-12-07T08:28:37;99638.78;;;-1.92;32.78
42727;BME280;28372;56.832;60.658;2022-12-07T08:31:11;99638.47;;;-2.12;32.47
42727;BME280;28372;56.832;60.658;2022-12-07T08:33:40;99618.16;;;-2.58;33.23
42727;BME280;28372;56.832;60.658;2022-12-07T08:36:10;99637.81;;;-2.53;33.93
42727;BME280;28372;56.832;60.658;2022-12-07T08:38:39;99631.06;;;-2.61;33.64
42727;BME280;28372;56.832;60.658;2022-12-07T08:41:22;99603.34;;;-2.87;34.31
42727;BME280;28372;56.832;60.658;2022-12-07T08:43:51;99627.91;;;-2.75;34.14
42727;BME280;28372;56.832;60.658;2022-12-07T08:46:22;99631.91;;;-2.72;34.41
42727;BME280;28372;56.832;60.658;2022-12-07T08:48:54;99631.69;;;-2.54;34.25
42727;BME280;28372;56.832;60.658;2022-12-07T08:51:24;99633.03;;;-2.85;34.48
42727;BME280;28372;56.832;60.658;2022-12-07T08:53:52;99639.97;;;-2.96;34.65
42727;BME280;28372;56.832;60.658;2022-12-07T08:56:21;99630.88;;;-3.00;35.00
42727;BME280;28372;56.832;60.658;2022-12-07T08:58:48;99625.53;;;-3.05;34.84
42727;BME280;28372;56.832;60.658;2022-12-07T09:01:16;99621.63;;;-3.15;35.37
42727;BME280;28372;56.832;60.658;2022-12-07T09:03:44;99619.81;;;-3.26;35.96
42727;BME280;28372;56.832;60.658;2022-12-07T09:06:11;99619.81;;;-3.26;36.04
42727;BME280;28372;56.832;60.658;2022-12-07T09:08:43;99627.25;;;-3.11;36.12
42727;BME280;28372;56.832;60.658;2022-12-07T09:11:13;99623.25;;;-3.14;35.83
42727;BME280;28372;56.832;60.658;2022-12-07T09:13:40;99621.63;;;-3.15;35.53
42727;BME280;28372;56.832;60.658;2022-12-07T09:16:08;99617.19;;;-3.26;36.18
42727;BME280;28372;56.832;60.658;2022-12-07T09:18:35;99625.69;;;-3.24;36.10
42727;BME280;28372;56.832;60.658;2022-12-07T09:21:04;99622.84;;;-3.34;36.33
42727;BME280;28372;56.832;60.658;2022-12-07T09:23:31;99614.75;;;-3.68;37.46
42727;BME280;28372;56.832;60.658;2022-12-07T09:26:02;99622.25;;;-4.01;37.78
42727;BME280;28372;56.832;60.658;2022-12-07T09:28:37;99622.25;;;-4.01;38.00
42727;BME280;28372;56.832;60.658;2022-12-07T09:31:05;99621.31;;;-4.18;38.04
42727;BME280;28372;56.832;60.658;2022-12-07T09:33:58;99616.50;;;-4.21;38.86
42727;BME280;28372;56.832;60.658;2022-12-07T09:36:27;99609.72;;;-4.29;38.73
42727;BME280;28372;56.832;60.658;2022-12-07T09:38:55;99612.03;;;-4.21;38.57
42727;BME280;28372;56.832;60.658;2022-12-07T09:41:24;99611.66;;;-4.13;38.51
42727;BME280;28372;56.832;60.658;2022-12-07T09:43:57;99612.16;;;-4.04;38.94
42727;BME280;28372;56.832;60.658;2022-12-07T09:46:26;99607.53;;;-4.08;38.76
42727;BME280;28372;56.832;60.658;2022-12-07T09:48:54;99606.16;;;-4.11;38.81
42727;BME280;28372;56.832;60.658;2022-12-07T09:51:23;99614.31;;;-4.01;39.32
42727;BME280;28372;56.832;60.658;2022-12-07T09:53:53;99605.81;;;-4.15;39.04
42727;BME280;28372;56.832;60.658;2022-12-07T09:56:23;99608.34;;;-3.96;38.43
42727;BME280;28372;56.832;60.658;2022-12-07T09:59:02;99605.38;;;-4.00;38.78
42727;BME280;28372;56.832;60.658;2022-12-07T10:01:32;99597.09;;;-4.03;38.67
42727;BME280;28372;56.832;60.658;2022-12-07T10:04:13;99599.03;;;-3.99;38.55
42727;BME280;28372;56.832;60.658;2022-12-07T10:06:42;99596.28;;;-4.04;39.31
42727;BME280;28372;56.832;60.658;2022-12-07T10:09:14;99593.19;;;-4.01;38.98
42727;BME280;28372;56.832;60.658;2022-12-07T10:12:08;99595.47;;;-3.92;39.27
42727;BME280;28372;56.832;60.658;2022-12-07T10:14:39;99592.81;;;-4.04;39.36
42727;BME280;28372;56.832;60.658;2022-12-07T10:17:39;99589.16;;;-4.03;39.58
42727;BME280;28372;56.832;60.658;2022-12-07T10:20:18;99601.56;;;-4.04;39.86
42727;BME280;28372;56.832;60.658;2022-12-07T10:23:00;99586.63;;;-4.10;39.43
42727;BME280;28372;56.832;60.658;2022-12-07T10:25:34;99588.94;;;-4.14;38.98
42727;BME280;28372;56.832;60.658;2022-12-07T10:33:38;99586.84;;;-4.35;40.17
42727;BME280;28372;56.832;60.658;2022-12-07T10:36:21;99582.81;;;-4.38;40.91
42727;BME280;28372;56.832;60.658;2022-12-07T10:39:01;99587.31;;;-4.50;40.92
42727;BME280;28372;56.832;60.658;2022-12-07T10:41:30;99583.50;;;-4.54;39.51
42727;BME280;28372;56.832;60.658;2022-12-07T10:43:58;99567.88;;;-4.68;39.92
42727;BME280;28372;56.832;60.658;2022-12-07T11:00:23;99580.50;;;-5.12;40.71
42727;BME280;28372;56.832;60.658;2022-12-07T11:03:16;99580.59;;;-5.19;39.98
42727;BME280;28372;56.832;60.658;2022-12-07T11:06:15;99574.38;;;-5.24;40.56
42727;BME280;28372;56.832;60.658;2022-12-07T11:11:30;99574.72;;;-5.51;40.73
42727;BME280;28372;56.832;60.658;2022-12-07T11:14:31;99569.00;;;-5.48;40.47
42727;BME280;28372;56.832;60.658;2022-12-07T11:17:13;99567.31;;;-5.61;40.56
42727;BME280;28372;56.832;60.658;2022-12-07T11:31:25;99574.00;;;-6.14;41.92
42727;BME280;28372;56.832;60.658;2022-12-07T11:36:47;99578.63;;;-6.34;42.19
42727;BME280;28372;56.832;60.658;2022-12-07T11:41:47;99566.81;;;-6.76;42.60
42727;BME280;28372;56.832;60.658;2022-12-07T11:47:12;99568.56;;;-6.95;43.88
42727;BME280;28372;56.832;60.658;2022-12-07T11:49:49;99535.81;;;-7.31;44.04
42727;BME280;28372;56.832;60.658;2022-12-07T11:52:25;99569.03;;;-7.04;43.92
42727;BME280;28372;56.832;60.658;2022-12-07T11:54:54;99572.72;;;-7.12;43.68
42727;BME280;28372;56.832;60.658;2022-12-07T11:57:46;99567.59;;;-7.00;43.33
42727;BME280;28372;56.832;60.658;2022-12-07T12:00:17;99566.88;;;-7.14;42.83
42727;BME280;28372;56.832;60.658;2022-12-07T12:03:02;99565.78;;;-7.38;43.73
42727;BME280;28372;56.832;60.658;2022-12-07T12:05:32;99571.47;;;-7.42;43.55
42727;BME280;28372;56.832;60.658;2022-12-07T12:15:23;99558.31;;;-7.42;44.37
42727;BME280;28372;56.832;60.658;2022-12-07T12:18:07;99561.31;;;-7.38;43.97
42727;BME280;28372;56.832;60.658;2022-12-07T12:20:47;99558.13;;;-7.40;44.34
42727;BME280;28372;56.832;60.658;2022-12-07T12:23:21;99551.72;;;-7.58;43.91
42727;BME280;28372;56.832;60.658;2022-12-07T12:25:54;99557.63;;;-7.69;44.38
42727;BME280;28372;56.832;60.658;2022-12-07T12:31:16;99557.47;;;-7.81;45.27
42727;BME280;28372;56.832;60.658;2022-12-07T12:33:50;99557.47;;;-7.81;45.35
42727;BME280;28372;56.832;60.658;2022-12-07T12:36:20;99559.00;;;-7.60;44.88
42727;BME280;28372;56.832;60.658;2022-12-07T12:51:58;99536.47;;;-7.87;45.25
42727;BME280;28372;56.832;60.658;2022-12-07T12:54:29;99539.16;;;-8.01;44.52
42727;BME280;28372;56.832;60.658;2022-12-07T12:57:15;99547.44;;;-8.04;44.65
42727;BME280;28372;56.832;60.658;2022-12-07T13:04:59;99549.06;;;-8.10;45.63
42727;BME280;28372;56.832;60.658;2022-12-07T13:13:28;99540.34;;;-7.97;45.74
42727;BME280;28372;56.832;60.658;2022-12-07T13:18:37;99542.03;;;-8.22;45.15
42727;BME280;28372;56.832;60.658;2022-12-07T13:28:38;99538.81;;;-8.38;46.13
42727;BME280;28372;56.832;60.658;2022-12-07T13:33:57;99551.00;;;-8.57;45.97
42727;BME280;28372;56.832;60.658;2022-12-07T13:36:27;99530.59;;;-8.55;46.16
42727;BME280;28372;56.832;60.658;2022-12-07T13:38:59;99540.19;;;-8.22;45.88
42727;BME280;28372;56.832;60.658;2022-12-07T13:41:29;99533.56;;;-8.38;45.13
42727;BME280;28372;56.832;60.658;2022-12-07T13:44:08;99538.81;;;-8.38;46.23
42727;BME280;28372;56.832;60.658;2022-12-07T13:46:48;99540.28;;;-8.49;46.51
42727;BME280;28372;56.832;60.658;2022-12-07T13:49:27;99528.34;;;-8.45;46.94
42727;BME280;28372;56.832;60.658;2022-12-07T13:52:20;99543.28;;;-8.38;47.46
42727;BME280;28372;56.832;60.658;2022-12-07T13:54:55;99530.34;;;-8.40;45.71
42727;BME280;28372;56.832;60.658;2022-12-07T13:57:25;99533.78;;;-8.39;45.40
42727;BME280;28372;56.832;60.658;2022-12-07T13:59:54;99533.44;;;-8.50;45.17
42727;BME280;28372;56.832;60.658;2022-12-07T14:02:30;99530.34;;;-8.40;46.16
42727;BME280;28372;56.832;60.658;2022-12-07T14:05:14;99529.53;;;-8.40;46.05
42727;BME280;28372;56.832;60.658;2022-12-07T14:08:03;99530.75;;;-8.36;47.19
42727;BME280;28372;56.832;60.658;2022-12-07T14:10:36;99517.06;;;-8.45;46.89
42727;BME280;28372;56.832;60.658;2022-12-07T14:15:57;99522.88;;;-8.43;46.01
42727;BME280;28372;56.832;60.658;2022-12-07T14:18:39;99523.06;;;-8.38;46.80
42727;BME280;28372;56.832;60.658;2022-12-07T14:23:39;99504.19;;;-8.67;46.15
42727;BME280;28372;56.832;60.658;2022-12-07T14:26:12;99501.97;;;-8.76;46.79
42727;BME280;28372;56.832;60.658;2022-12-07T14:28:42;99490.66;;;-8.97;47.52
42727;BME280;28372;56.832;60.658;2022-12-07T14:31:24;99504.97;;;-8.73;47.94
42727;BME280;28372;56.832;60.658;2022-12-07T14:33:59;99502.97;;;-8.84;47.34
42727;BME280;28372;56.832;60.658;2022-12-07T14:36:27;99492.91;;;-8.81;46.55
42727;BME280;28372;56.832;60.658;2022-12-07T14:38:55;99493.50;;;-8.72;46.55
42727;BME280;28372;56.832;60.658;2022-12-07T14:41:25;99497.13;;;-8.66;46.21
42727;BME280;28372;56.832;60.658;2022-12-07T14:44:12;99499.53;;;-8.65;46.77
42727;BME280;28372;56.832;60.658;2022-12-07T14:46:59;99510.63;;;-8.56;46.12
42727;BME280;28372;56.832;60.658;2022-12-07T14:49:47;99500.75;;;-8.67;46.93
42727;BME280;28372;56.832;60.658;2022-12-07T14:52:38;99496.91;;;-8.65;47.22
42727;BME280;28372;56.832;60.658;2022-12-07T14:55:30;99497.50;;;-8.63;51.61
42727;BME280;28372;56.832;60.658;2022-12-07T14:57:58;99490.88;;;-8.65;50.50
42727;BME280;28372;56.832;60.658;2022-12-07T15:00:27;99498.69;;;-8.52;54.58
42727;BME280;28372;56.832;60.658;2022-12-07T15:02:56;99479.97;;;-8.69;54.02
42727;BME280;28372;56.832;60.658;2022-12-07T15:05:24;99477.75;;;-8.79;53.88
42727;BME280;28372;56.832;60.658;2022-12-07T15:07:52;99488.25;;;-8.79;54.38
42727;BME280;28372;56.832;60.658;2022-12-07T15:10:22;99475.75;;;-8.76;57.46
42727;BME280;28372;56.832;60.658;2022-12-07T15:12:51;99486.41;;;-8.71;57.38
42727;BME280;28372;56.832;60.658;2022-12-07T15:15:18;99491.28;;;-8.88;53.97
42727;BME280;28372;56.832;60.658;2022-12-07T15:17:46;99489.66;;;-8.76;57.51
42727;BME280;28372;56.832;60.658;2022-12-07T15:20:15;99477.38;;;-8.89;55.71
42727;BME280;28372;56.832;60.658;2022-12-07T15:22:44;99474.50;;;-8.74;56.94
42727;BME280;28372;56.832;60.658;2022-12-07T15:25:14;99482.75;;;-8.50;56.86
42727;BME280;28372;56.832;60.658;2022-12-07T15:27:42;99490.66;;;-8.57;53.68
42727;BME280;28372;56.832;60.658;2022-12-07T15:30:10;99475.31;;;-8.60;52.41